Time;durP1;ratioP1;P1;durP2;ratioP2;P2;SDS_P1;SDS_P2;PMS_P1;PMS_P2;Temp;Humidity;BMP_temperature;BMP_pressure;BME280_temperature;BME280_humidity;BME280_pressure;Samples;Min_cycle;Max_cycle;Signal;HPM_P1;HPM_P2
2022/03/25 00:02:10;;;;;;;27.33;12.63;;;7.50;74.20;;;;;;4968267;28;20211;-84
2022/03/25 00:04:36;;;;;;;25.23;15.77;;;7.40;74.40;;;;;;4971656;28;20550;-84
2022/03/25 00:07:02;;;;;;;28.60;14.93;;;;;;;;;;4971242;28;20183;-85
2022/03/25 00:09:27;;;;;;;31.77;15.17;;;7.40;73.70;;;;;;4975558;28;20184;-84
2022/03/25 00:11:53;;;;;;;28.97;14.43;;;7.30;74.30;;;;;;4971364;28;20529;-87
2022/03/25 00:14:19;;;;;;;31.73;16.43;;;7.30;74.00;;;;;;4991759;28;20188;-83
2022/03/25 00:16:46;;;;;;;27.40;15.13;;;7.60;74.20;;;;;;4974486;28;20196;-83
2022/03/25 00:19:11;;;;;;;30.10;14.90;;;7.30;73.70;;;;;;4987237;28;20194;-85
2022/03/25 00:21:37;;;;;;;32.50;15.37;;;7.30;75.10;;;;;;4972404;28;20235;-86
2022/03/25 00:24:04;;;;;;;26.27;14.70;;;7.40;75.60;;;;;;4961882;28;20207;-85
2022/03/25 00:26:30;;;;;;;30.67;15.68;;;7.40;74.70;;;;;;4977713;28;20438;-87
2022/03/25 00:28:55;;;;;;;29.00;14.43;;;7.40;73.50;;;;;;4961033;28;20180;-84
2022/03/25 00:31:21;;;;;;;30.37;15.77;;;7.40;73.00;;;;;;4970716;28;20478;-85
2022/03/25 00:33:49;;;;;;;33.80;15.67;;;7.30;73.40;;;;;;4969963;28;20222;-85
2022/03/25 00:36:18;;;;;;;30.85;14.18;;;7.20;74.80;;;;;;4972492;28;20203;-85
2022/03/25 00:38:45;;;;;;;29.67;15.02;;;7.10;75.70;;;;;;4968555;28;20194;-86
2022/03/25 00:41:12;;;;;;;27.40;15.98;;;7.00;75.20;;;;;;4958122;28;20196;-85
2022/03/25 00:43:38;;;;;;;41.90;16.35;;;7.00;74.80;;;;;;4971977;28;20785;-85
2022/03/25 00:46:04;;;;;;;31.63;16.10;;;6.90;76.70;;;;;;4971413;28;20215;-86
2022/03/25 00:48:29;;;;;;;34.97;16.10;;;6.90;77.80;;;;;;4964813;28;20732;-85
2022/03/25 00:50:55;;;;;;;34.23;17.90;;;6.70;78.60;;;;;;4967409;28;20191;-84
2022/03/25 00:53:21;;;;;;;30.60;15.63;;;6.50;79.30;;;;;;4962444;28;20207;-87
2022/03/25 00:55:47;;;;;;;27.15;16.15;;;6.40;79.90;;;;;;4963486;28;20199;-87
2022/03/25 00:58:14;;;;;;;31.23;15.83;;;6.30;80.10;;;;;;4966840;28;20188;-85
2022/03/25 01:00:41;;;;;;;36.83;18.13;;;6.30;80.50;;;;;;4963608;28;20291;-84
2022/03/25 01:03:07;;;;;;;35.92;17.45;;;6.20;82.00;;;;;;4964200;28;20250;-85
2022/03/25 01:05:33;;;;;;;33.40;16.75;;;6.10;88.60;;;;;;4969558;28;20286;-83
2022/03/25 01:07:59;;;;;;;28.60;15.00;;;5.80;90.40;;;;;;4965943;28;20937;-84
2022/03/25 01:10:24;;;;;;;34.43;16.00;;;5.70;91.10;;;;;;4970388;28;20180;-86
2022/03/25 01:12:50;;;;;;;38.67;16.53;;;5.60;93.40;;;;;;4970326;28;20254;-84
2022/03/25 01:15:16;;;;;;;30.67;16.00;;;5.30;95.70;;;;;;4972481;28;20294;-85
2022/03/25 01:17:41;;;;;;;29.33;15.70;;;5.10;97.60;;;;;;4982949;28;20200;-86
2022/03/25 01:20:09;;;;;;;29.43;15.40;;;5.00;99.00;;;;;;4973789;28;20208;-89
2022/03/25 01:22:35;;;;;;;33.38;16.13;;;5.00;99.60;;;;;;4970135;28;20219;-86
2022/03/25 01:25:01;;;;;;;32.57;16.10;;;5.00;99.50;;;;;;4972428;28;20206;-87
2022/03/25 01:27:26;;;;;;;30.07;16.00;;;5.00;99.00;;;;;;4964765;28;20437;-86
2022/03/25 01:29:52;;;;;;;29.30;14.97;;;5.10;98.60;;;;;;4969387;28;20431;-84
2022/03/25 01:32:17;;;;;;;28.80;14.93;;;5.20;98.30;;;;;;4969064;28;21083;-87
2022/03/25 01:34:43;;;;;;;29.27;16.00;;;5.20;97.80;;;;;;4960641;28;20194;-87
2022/03/25 01:37:09;;;;;;;29.83;16.23;;;5.40;97.20;;;;;;4968115;28;20576;-86
2022/03/25 01:39:35;;;;;;;32.05;17.85;;;5.80;96.00;;;;;;4982737;28;20184;-84
2022/03/25 01:42:00;;;;;;;34.17;15.80;;;6.00;95.20;;;;;;4986306;28;20727;-86
2022/03/25 01:44:29;;;;;;;29.93;16.30;;;6.00;95.30;;;;;;4971805;28;20183;-85
2022/03/25 01:46:57;;;;;;;26.80;14.70;;;6.00;95.10;;;;;;4967072;28;20206;-86
2022/03/25 01:49:23;;;;;;;32.70;16.17;;;6.20;94.90;;;;;;4972050;28;20584;-87
2022/03/25 01:51:51;;;;;;;33.37;17.00;;;6.00;94.20;;;;;;4980227;28;20184;-83
2022/03/25 01:54:39;;;;;;;35.65;17.83;;;6.00;94.50;;;;;;5010926;28;20435;-82
2022/03/25 01:57:08;;;;;;;33.35;17.58;;;5.90;94.70;;;;;;4983840;28;20175;-81
2022/03/25 01:59:34;;;;;;;37.00;18.27;;;5.70;95.10;;;;;;4981585;28;20239;-89
2022/03/25 02:02:01;;;;;;;33.00;16.07;;;5.50;97.60;;;;;;4955958;28;20203;-84
2022/03/25 02:04:28;;;;;;;29.83;17.10;;;5.50;98.00;;;;;;4971160;28;20275;-86
2022/03/25 02:06:53;;;;;;;34.30;17.60;;;5.40;98.50;;;;;;4981983;28;20255;-85
2022/03/25 02:09:19;;;;;;;33.73;15.53;;;5.30;99.10;;;;;;4969825;28;20346;-82
2022/03/25 02:11:45;;;;;;;29.17;15.97;;;5.20;99.90;;;;;;4968057;28;20195;-81
2022/03/25 02:14:11;;;;;;;34.00;18.30;;;5.10;99.90;;;;;;4964572;28;20207;-86
2022/03/25 02:16:39;;;;;;;30.58;16.45;;;5.00;99.90;;;;;;4965180;28;20443;-81
2022/03/25 02:19:05;;;;;;;33.13;15.98;;;5.00;99.90;;;;;;4958667;28;20187;-85
2022/03/25 02:21:32;;;;;;;52.88;22.65;;;5.00;99.90;;;;;;4963666;28;20221;-86
2022/03/25 02:24:01;;;;;;;42.03;17.70;;;5.10;99.90;;;;;;4965928;28;20204;-86
2022/03/25 02:26:28;;;;;;;42.20;19.25;;;5.30;99.90;;;;;;4960843;28;20180;-84
2022/03/25 02:28:55;;;;;;;40.28;18.25;;;5.40;99.90;;;;;;4978493;28;20188;-83
2022/03/25 02:31:21;;;;;;;33.88;16.38;;;5.40;99.90;;;;;;4972653;28;21693;-83
2022/03/25 02:33:48;;;;;;;29.70;15.40;;;5.30;99.90;;;;;;4979045;28;20247;-84
2022/03/25 02:36:13;;;;;;;38.00;18.90;;;7.60;99.90;;;;;;4972867;28;20443;-86
2022/03/25 02:38:39;;;;;;;41.53;18.93;;;5.20;99.90;;;;;;4967802;28;20733;-88
2022/03/25 02:41:04;;;;;;;41.13;17.07;;;5.20;99.90;;;;;;4966994;28;20649;-85
2022/03/25 02:43:31;;;;;;;32.63;17.17;;;;;;;;;;4964742;28;20211;-84
2022/03/25 02:45:56;;;;;;;30.10;16.40;;;5.10;99.90;;;;;;4966297;28;20294;-82
2022/03/25 02:48:22;;;;;;;39.80;18.63;;;5.00;99.90;;;;;;4965447;28;20186;-85
2022/03/25 02:50:48;;;;;;;41.73;17.30;;;4.90;99.90;;;;;;4989362;28;21045;-86
2022/03/25 02:53:14;;;;;;;37.63;18.93;;;4.90;99.90;;;;;;4984903;28;20550;-86
2022/03/25 02:55:40;;;;;;;36.25;17.77;;;4.90;99.90;;;;;;4973917;28;20443;-84
2022/03/25 02:58:06;;;;;;;32.28;17.15;;;4.90;99.90;;;;;;4970150;28;20191;-83
2022/03/25 03:00:32;;;;;;;33.00;16.20;;;6.30;99.90;;;;;;4964924;28;20787;-85
2022/03/25 03:03:01;;;;;;;34.27;17.83;;;5.00;99.90;;;;;;4977643;28;20232;-84
2022/03/25 03:05:27;;;;;;;40.15;21.30;;;5.00;99.90;;;;;;4973104;28;20435;-84
2022/03/25 03:07:54;;;;;;;42.88;20.50;;;5.00;99.90;;;;;;4987130;28;20503;-86
2022/03/25 03:10:19;;;;;;;48.92;22.33;;;4.80;99.90;;;;;;4963387;28;20211;-83
2022/03/25 03:12:45;;;;;;;30.87;17.33;;;5.00;99.90;;;;;;4968767;28;20232;-84
2022/03/25 03:15:13;;;;;;;37.00;17.67;;;5.00;99.90;;;;;;4962623;28;20474;-83
2022/03/25 03:17:39;;;;;;;35.80;17.20;;;4.90;99.90;;;;;;4968317;28;20187;-85
2022/03/25 03:20:06;;;;;;;38.40;16.60;;;4.90;99.90;;;;;;4972777;28;20184;-85
2022/03/25 03:22:32;;;;;;;34.58;17.25;;;4.80;99.90;;;;;;4963624;28;20558;-85
2022/03/25 03:24:57;;;;;;;37.95;18.17;;;4.70;99.90;;;;;;4954343;28;20788;-82
2022/03/25 03:27:23;;;;;;;37.37;17.57;;;4.70;99.90;;;;;;4964841;28;20251;-86
2022/03/25 03:29:49;;;;;;;39.47;18.83;;;4.70;99.90;;;;;;4979041;28;20187;-89
2022/03/25 03:32:14;;;;;;;40.47;18.20;;;4.70;99.90;;;;;;4958593;28;20231;-84
2022/03/25 03:34:40;;;;;;;37.50;18.80;;;4.60;99.90;;;;;;4957030;28;20223;-85
2022/03/25 03:37:06;;;;;;;39.53;17.70;;;4.60;99.90;;;;;;4962636;28;20184;-83
2022/03/25 03:39:32;;;;;;;40.17;20.30;;;4.50;99.90;;;;;;4956377;28;20192;-87
2022/03/25 03:41:58;;;;;;;33.30;17.58;;;4.50;99.90;;;;;;4960618;28;21104;-84
2022/03/25 03:44:24;;;;;;;39.25;18.40;;;4.40;99.90;;;;;;4963131;28;20184;-84
2022/03/25 03:46:49;;;;;;;39.03;17.80;;;4.30;99.90;;;;;;4965545;28;20187;-84
2022/03/25 03:49:15;;;;;;;37.10;17.80;;;4.20;99.90;;;;;;4966788;28;20215;-83
2022/03/25 03:51:40;;;;;;;31.13;18.07;;;4.10;99.90;;;;;;4964034;28;20191;-82
2022/03/25 03:54:06;;;;;;;41.23;21.77;;;4.10;99.90;;;;;;4966371;28;20188;-84
2022/03/25 03:56:31;;;;;;;41.17;22.00;;;4.10;99.90;;;;;;4970538;28;20286;-88
2022/03/25 03:58:57;;;;;;;39.63;19.53;;;4.10;99.90;;;;;;4973087;28;20222;-85
2022/03/25 04:01:23;;;;;;;39.97;19.90;;;4.10;99.90;;;;;;4977283;28;20222;-85
2022/03/25 04:03:49;;;;;;;42.43;20.87;;;;;;;;;;4961899;28;20200;-88
2022/03/25 04:06:14;;;;;;;35.40;18.13;;;4.00;99.90;;;;;;4967002;28;20456;-87
2022/03/25 04:08:40;;;;;;;35.47;19.50;;;4.00;99.90;;;;;;4961806;28;20860;-87
2022/03/25 04:11:06;;;;;;;36.60;19.73;;;4.00;99.90;;;;;;4973274;28;20192;-85
2022/03/25 04:13:31;;;;;;;36.70;20.13;;;3.90;99.90;;;;;;4963327;28;20216;-83
2022/03/25 04:15:57;;;;;;;39.47;19.77;;;3.90;99.90;;;;;;4966396;28;20196;-83
2022/03/25 04:18:22;;;;;;;33.60;17.53;;;3.80;99.90;;;;;;4959823;28;20196;-84
2022/03/25 04:20:50;;;;;;;41.13;18.40;;;3.80;99.90;;;;;;4967024;28;20227;-86
2022/03/25 04:23:16;;;;;;;36.78;17.10;;;3.70;99.90;;;;;;4969003;28;20459;-84
2022/03/25 04:25:41;;;;;;;35.77;18.50;;;3.70;99.90;;;;;;4968118;28;20231;-82
2022/03/25 04:28:07;;;;;;;35.30;19.27;;;3.70;99.90;;;;;;4966810;28;20463;-88
2022/03/25 04:30:35;;;;;;;39.37;19.80;;;3.60;99.90;;;;;;4972981;28;20231;-85
2022/03/25 04:33:02;;;;;;;37.03;19.05;;;3.50;99.90;;;;;;4992914;28;20454;-85
2022/03/25 04:35:28;;;;;;;37.92;19.63;;;3.50;99.90;;;;;;4963752;28;20294;-83
2022/03/25 04:37:55;;;;;;;36.97;19.77;;;3.40;99.90;;;;;;4971001;28;20171;-83
2022/03/25 04:40:23;;;;;;;36.38;18.55;;;3.40;99.90;;;;;;4998021;28;20199;-84
2022/03/25 04:42:50;;;;;;;37.25;17.20;;;3.40;99.90;;;;;;4973725;28;20303;-86
2022/03/25 04:45:16;;;;;;;40.97;19.52;;;3.30;99.90;;;;;;4969288;28;20192;-85
2022/03/25 04:47:43;;;;;;;35.00;18.75;;;3.30;99.90;;;;;;4993939;28;20215;-85
2022/03/25 04:50:09;;;;;;;35.80;18.08;;;3.20;99.90;;;;;;4994913;28;20176;-83
2022/03/25 04:52:35;;;;;;;33.10;18.10;;;3.20;99.90;;;;;;4988613;28;20208;-86
2022/03/25 04:55:01;;;;;;;32.27;15.67;;;3.10;99.90;;;;;;4966956;28;20672;-83
2022/03/25 04:57:26;;;;;;;44.43;21.77;;;3.10;99.90;;;;;;4972387;28;20200;-85
2022/03/25 04:59:52;;;;;;;40.13;16.77;;;3.00;99.90;;;;;;4972593;28;20187;-87
2022/03/25 05:02:18;;;;;;;30.83;18.10;;;3.00;99.90;;;;;;4973405;28;20290;-86
2022/03/25 05:04:43;;;;;;;35.07;18.47;;;2.90;99.90;;;;;;4975047;28;20191;-85
2022/03/25 05:07:16;;;;;;;36.87;18.73;;;2.80;99.90;;;;;;4971591;28;20184;-84
2022/03/25 05:09:42;;;;;;;28.20;16.17;;;2.80;99.90;;;;;;4970769;28;20218;-85
2022/03/25 05:12:08;;;;;;;49.13;20.17;;;2.80;99.90;;;;;;4969902;28;20200;-86
2022/03/25 05:14:34;;;;;;;37.53;19.55;;;2.80;99.90;;;;;;4973126;28;20462;-86
2022/03/25 05:17:00;;;;;;;44.10;20.23;;;3.00;99.90;;;;;;4970212;28;20218;-84
2022/03/25 05:19:25;;;;;;;37.33;19.23;;;3.00;99.90;;;;;;4974528;28;20447;-86
2022/03/25 05:21:51;;;;;;;40.23;20.83;;;3.00;99.90;;;;;;4973871;28;20217;-84
2022/03/25 05:24:17;;;;;;;39.90;20.70;;;3.00;99.90;;;;;;4990810;28;20227;-86
2022/03/25 05:26:43;;;;;;;35.23;19.97;;;2.90;99.90;;;;;;4984185;28;20274;-85
2022/03/25 05:29:09;;;;;;;36.13;18.17;;;2.80;99.90;;;;;;4990800;28;20503;-84
2022/03/25 05:31:36;;;;;;;40.50;19.60;;;2.80;99.90;;;;;;4969414;28;20215;-86
2022/03/25 05:34:04;;;;;;;41.65;19.00;;;2.90;99.90;;;;;;4965671;28;20238;-84
2022/03/25 05:36:31;;;;;;;34.53;18.85;;;3.00;99.90;;;;;;4967940;28;20271;-87
2022/03/25 05:38:57;;;;;;;42.60;20.85;;;3.20;99.90;;;;;;4962988;28;20225;-84
2022/03/25 05:41:24;;;;;;;35.33;19.00;;;3.70;99.90;;;;;;4966516;28;20204;-84
2022/03/25 05:43:53;;;;;;;45.65;23.02;;;4.50;99.90;;;;;;4960379;28;20558;-84
2022/03/25 05:46:19;;;;;;;48.65;27.85;;;5.20;99.90;;;;;;4955335;28;21095;-83
2022/03/25 05:48:47;;;;;;;32.75;19.45;;;5.70;99.90;;;;;;4962345;28;20218;-87
2022/03/25 05:51:14;;;;;;;43.67;20.10;;;6.10;99.90;;;;;;4976170;28;20283;-83
2022/03/25 05:53:41;;;;;;;35.47;20.00;;;6.70;99.90;;;;;;4958727;28;21012;-86
2022/03/25 05:56:07;;;;;;;41.10;20.98;;;7.50;99.90;;;;;;4966750;28;20219;-84
2022/03/25 05:58:34;;;;;;;37.33;19.08;;;8.50;99.90;;;;;;4992473;28;20187;-82
2022/03/25 06:01:01;;;;;;;36.00;18.63;;;9.50;99.90;;;;;;4986098;28;20687;-85
2022/03/25 06:03:26;;;;;;;36.78;18.85;;;10.30;99.40;;;;;;4956919;28;20203;-83
2022/03/25 06:05:52;;;;;;;36.37;20.40;;;11.10;96.70;;;;;;4960715;28;20604;-83
2022/03/25 06:08:19;;;;;;;37.07;20.73;;;11.90;93.90;;;;;;4971388;28;20180;-82
2022/03/25 06:10:45;;;;;;;33.22;19.00;;;12.80;92.20;;;;;;4971788;28;20451;-85
2022/03/25 06:13:10;;;;;;;31.57;18.33;;;13.30;86.20;;;;;;4960267;28;20215;-83
2022/03/25 06:15:36;;;;;;;35.10;19.90;;;13.80;83.30;;;;;;4957555;28;20191;-85
2022/03/25 06:18:01;;;;;;;45.10;20.13;;;14.50;80.80;;;;;;4956517;28;20206;-84
2022/03/25 06:20:29;;;;;;;40.60;20.10;;;15.50;79.00;;;;;;4967747;28;20214;-86
2022/03/25 06:22:55;;;;;;;35.50;21.25;;;16.50;73.00;;;;;;4964142;28;20711;-84
2022/03/25 06:25:20;;;;;;;36.25;18.98;;;17.00;66.20;;;;;;4963671;28;20192;-85
2022/03/25 06:27:57;;;;;;;33.83;20.40;;;17.60;64.60;;;;;;4966560;28;20242;-87
2022/03/25 06:30:27;;;;;;;31.17;19.30;;;18.00;59.60;;;;;;4965450;28;20219;-85
2022/03/25 06:32:53;;;;;;;32.63;20.50;;;18.70;59.60;;;;;;4963524;28;20447;-81
2022/03/25 06:35:19;;;;;;;34.03;21.60;;;19.80;57.00;;;;;;4961951;28;20558;-84
2022/03/25 06:37:45;;;;;;;34.80;23.97;;;21.00;55.20;;;;;;4967357;28;20454;-88
2022/03/25 06:40:12;;;;;;;39.13;22.90;;;20.60;52.00;;;;;;4967751;28;20451;-84
2022/03/25 06:42:39;;;;;;;31.57;22.10;;;20.60;50.80;;;;;;4985373;28;20211;-82
2022/03/25 06:45:07;;;;;;;36.50;23.30;;;20.90;50.30;;;;;;4991873;28;20683;-86
2022/03/25 06:47:33;;;;;;;35.73;23.03;;;20.30;47.40;;;;;;4961186;28;20439;-87
2022/03/25 06:50:00;;;;;;;37.30;23.00;;;19.60;48.20;;;;;;4956698;28;20446;-84
2022/03/25 06:52:26;;;;;;;42.00;24.63;;;18.90;48.60;;;;;;4964486;28;20462;-86
2022/03/25 06:54:52;;;;;;;41.10;22.17;;;18.40;49.20;;;;;;4962989;28;20475;-87
2022/03/25 06:57:18;;;;;;;46.70;23.03;;;17.70;50.00;;;;;;4966225;28;20466;-86
2022/03/25 06:59:44;;;;;;;33.30;21.23;;;18.50;51.90;;;;;;4975618;28;20370;-87
2022/03/25 07:02:10;;;;;;;30.87;19.53;;;19.80;50.70;;;;;;4963919;28;20601;-83
2022/03/25 07:04:37;;;;;;;36.20;22.63;;;20.80;50.60;;;;;;4979683;28;20490;-84
2022/03/25 07:07:04;;;;;;;35.67;21.63;;;21.90;48.30;;;;;;4964653;28;20436;-87
2022/03/25 07:09:30;;;;;;;39.37;22.50;;;22.00;46.40;;;;;;4962102;28;20822;-86
2022/03/25 07:11:56;;;;;;;30.47;21.70;;;23.40;45.40;;;;;;4960551;28;20459;-87
2022/03/25 07:14:22;;;;;;;39.57;23.23;;;23.40;45.90;;;;;;4958006;28;21240;-87
2022/03/25 07:16:49;;;;;;;34.90;22.17;;;23.60;44.90;;;;;;4959542;28;20478;-86
2022/03/25 07:19:14;;;;;;;33.50;22.97;;;23.50;44.50;;;;;;4965826;28;20200;-88
2022/03/25 07:21:40;;;;;;;34.77;23.47;;;23.40;44.10;;;;;;4967603;28;20474;-87
2022/03/25 07:24:06;;;;;;;38.50;23.70;;;23.40;43.90;;;;;;4991290;28;20195;-84
2022/03/25 07:26:31;;;;;;;35.20;23.23;;;22.00;43.80;;;;;;4971636;28;20207;-83
2022/03/25 07:28:57;;;;;;;32.60;22.80;;;21.50;44.80;;;;;;4959656;28;20179;-87
2022/03/25 07:31:28;;;;;;;34.57;23.20;;;23.10;46.60;;;;;;4967552;28;20188;-88
2022/03/25 07:33:54;;;;;;;41.60;25.17;;;21.20;45.70;;;;;;4967930;28;21429;-89
2022/03/25 07:36:20;;;;;;;39.50;24.57;;;21.40;46.60;;;;;;4974529;28;20510;-85
2022/03/25 07:38:45;;;;;;;38.27;23.80;;;21.70;45.40;;;;;;4976512;28;20447;-86
2022/03/25 07:41:11;;;;;;;37.00;24.57;;;;;;;;;;4971572;28;20199;-85
2022/03/25 07:43:38;;;;;;;38.07;22.90;;;22.40;45.40;;;;;;4988975;28;20195;-85
2022/03/25 07:46:03;;;;;;;36.33;25.43;;;22.10;44.10;;;;;;4990930;28;20451;-84
2022/03/25 07:48:29;;;;;;;40.13;26.20;;;22.50;44.20;;;;;;4975541;28;20497;-86
2022/03/25 07:50:54;;;;;;;38.83;23.63;;;22.20;44.10;;;;;;4979331;28;20404;-85
2022/03/25 07:53:21;;;;;;;34.07;22.47;;;22.50;44.40;;;;;;4977015;28;20222;-84
2022/03/25 07:55:50;;;;;;;33.40;23.30;;;22.60;43.40;;;;;;4971244;28;20184;-83
2022/03/25 07:58:19;;;;;;;33.13;22.70;;;22.30;43.50;;;;;;4966169;28;21447;-82
2022/03/25 08:00:45;;;;;;;33.43;24.30;;;22.90;43.90;;;;;;4968004;28;20441;-83
2022/03/25 08:03:11;;;;;;;32.20;23.27;;;23.70;42.80;;;;;;4967287;28;20475;-84
2022/03/25 08:05:38;;;;;;;32.40;22.67;;;24.60;42.20;;;;;;4971150;28;20444;-83
2022/03/25 08:08:04;;;;;;;31.47;22.53;;;25.90;43.10;;;;;;4958496;28;20183;-86
2022/03/25 08:10:31;;;;;;;31.07;23.73;;;;;;;;;;4971920;28;20482;-84
2022/03/25 08:12:59;;;;;;;44.03;25.47;;;26.00;40.10;;;;;;4970551;28;21519;-86
2022/03/25 08:15:27;;;;;;;35.10;24.80;;;26.70;39.80;;;;;;4986014;28;20529;-86
2022/03/25 08:17:58;;;;;;;35.20;24.57;;;26.50;39.60;;;;;;4969633;28;20435;-85
2022/03/25 08:20:36;;;;;;;36.10;24.70;;;25.60;39.40;;;;;;4969966;28;20444;-86
2022/03/25 08:23:02;;;;;;;38.40;23.43;;;24.70;40.10;;;;;;4968304;28;20480;-86
2022/03/25 08:28:17;;;;;;;36.90;26.27;;;25.10;40.60;;;;;;4972950;28;21013;-85
2022/03/25 08:30:44;;;;;;;38.07;25.87;;;25.10;39.80;;;;;;4988354;28;20466;-88
2022/03/25 08:33:12;;;;;;;35.57;25.47;;;26.30;39.20;;;;;;4974781;28;20466;-87
2022/03/25 08:35:39;;;;;;;36.40;27.30;;;26.10;37.60;;;;;;4973773;28;20507;-88
2022/03/25 08:38:07;;;;;;;37.93;28.07;;;26.20;36.40;;;;;;4971463;28;20446;-86
2022/03/25 08:40:35;;;;;;;43.53;27.30;;;25.10;37.80;;;;;;4976448;28;20443;-86
2022/03/25 08:43:03;;;;;;;37.57;27.53;;;25.70;38.00;;;;;;4961554;28;20467;-87
2022/03/25 08:45:32;;;;;;;35.93;26.67;;;25.20;37.30;;;;;;4968070;28;20475;-85
2022/03/25 08:47:58;;;;;;;42.13;27.03;;;24.90;37.50;;;;;;4977886;28;20421;-82
2022/03/25 08:50:24;;;;;;;36.33;28.23;;;24.00;37.50;;;;;;5008272;28;20455;-86
2022/03/25 08:52:51;;;;;;;41.67;28.00;;;23.80;38.20;;;;;;4972654;28;20546;-87
2022/03/25 08:55:18;;;;;;;40.83;27.50;;;23.20;38.90;;;;;;4969511;28;20443;-88
2022/03/25 08:57:44;;;;;;;40.30;27.50;;;23.30;39.30;;;;;;4967488;28;20513;-86
2022/03/25 09:00:13;;;;;;;42.17;29.47;;;23.70;38.60;;;;;;4970528;28;20443;-86
2022/03/25 09:02:40;;;;;;;47.73;28.63;;;25.10;38.40;;;;;;4984018;28;20223;-85
2022/03/25 09:05:07;;;;;;;38.83;28.57;;;25.60;37.30;;;;;;4968871;28;20442;-82
2022/03/25 09:07:36;;;;;;;41.60;29.90;;;26.40;36.80;;;;;;4967436;28;20428;-86
2022/03/25 09:10:03;;;;;;;38.67;27.57;;;26.80;36.20;;;;;;4969275;28;20442;-86
2022/03/25 09:12:28;;;;;;;45.53;28.77;;;25.90;36.60;;;;;;4972612;28;20458;-83
2022/03/25 09:14:55;;;;;;;42.53;29.57;;;24.80;37.50;;;;;;4973427;28;20450;-85
2022/03/25 09:17:22;;;;;;;38.67;28.70;;;24.20;37.80;;;;;;4966851;28;20748;-86
2022/03/25 09:19:47;;;;;;;40.13;27.10;;;24.60;38.00;;;;;;4970780;28;20444;-86
2022/03/25 09:22:13;;;;;;;44.37;28.40;;;24.60;38.30;;;;;;4970770;28;20466;-85
2022/03/25 09:24:38;;;;;;;44.77;29.87;;;23.70;38.50;;;;;;4970166;28;20198;-84
2022/03/25 09:27:04;;;;;;;48.30;29.20;;;23.40;38.40;;;;;;4989381;28;20183;-86
2022/03/25 09:29:30;;;;;;;41.30;28.43;;;23.80;39.30;;;;;;4979721;28;20187;-86
2022/03/25 09:31:55;;;;;;;42.83;28.60;;;23.80;39.60;;;;;;4967534;28;20278;-87
2022/03/25 09:37:06;;;;;;;44.77;30.60;;;24.80;38.20;;;;;;4969691;28;20214;-85
2022/03/25 09:39:36;;;;;;;42.13;29.23;;;24.80;37.70;;;;;;4967600;28;20813;-86
2022/03/25 09:42:04;;;;;;;41.30;30.30;;;24.20;36.20;;;;;;4964048;28;20215;-88
2022/03/25 09:44:30;;;;;;;46.20;30.27;;;24.40;37.40;;;;;;4985037;28;20442;-88
2022/03/25 09:46:56;;;;;;;42.20;29.67;;;24.00;37.50;;;;;;4955284;28;20458;-87
2022/03/25 09:49:22;;;;;;;43.37;29.13;;;24.40;37.90;;;;;;4967351;28;20439;-86
2022/03/25 09:51:47;;;;;;;50.37;32.07;;;25.30;37.80;;;;;;4969244;28;20192;-87
2022/03/25 09:54:14;;;;;;;44.37;32.10;;;26.50;36.30;;;;;;4967531;28;20242;-87
2022/03/25 09:56:40;;;;;;;52.50;32.73;;;25.00;35.90;;;;;;4968752;28;20191;-88
2022/03/25 09:59:07;;;;;;;54.67;34.47;;;24.40;37.20;;;;;;4975877;28;20458;-88
2022/03/25 10:01:33;;;;;;;46.90;31.87;;;25.30;35.50;;;;;;5009370;28;20463;-83
2022/03/25 10:04:07;;;;;;;42.93;31.83;;;25.90;35.40;;;;;;4994465;28;20451;-85
2022/03/25 10:06:46;;;;;;;49.67;32.30;;;27.00;34.50;;;;;;4990317;28;20515;-82
2022/03/25 10:09:21;;;;;;;51.70;32.93;;;26.80;33.90;;;;;;4974814;28;20540;-89
2022/03/25 10:11:51;;;;;;;49.30;34.17;;;26.50;33.30;;;;;;4973779;28;20890;-84
2022/03/25 10:14:23;;;;;;;58.00;34.50;;;25.30;35.20;;;;;;4992565;28;20516;-84
2022/03/25 10:16:53;;;;;;;53.80;33.27;;;23.10;35.20;;;;;;4968855;28;20438;-88
2022/03/25 10:19:21;;;;;;;49.17;32.10;;;22.10;37.10;;;;;;4969241;28;20447;-87
2022/03/25 10:22:04;;;;;;;53.20;32.00;;;20.50;37.60;;;;;;4969313;28;20470;-87
2022/03/25 10:24:52;;;;;;;49.30;29.10;;;19.00;39.80;;;;;;4970188;28;20455;-88
2022/03/25 10:27:24;;;;;;;52.20;30.60;;;18.60;42.50;;;;;;4967543;28;20427;-86
2022/03/25 10:29:54;;;;;;;44.23;29.53;;;18.20;41.10;;;;;;4982938;28;21678;-86
2022/03/25 10:32:26;;;;;;;53.13;30.50;;;17.70;44.60;;;;;;4973734;28;20447;-84
2022/03/25 10:35:08;;;;;;;50.33;32.07;;;17.30;45.10;;;;;;4989238;28;20466;-84
2022/03/25 10:37:34;;;;;;;45.70;28.60;;;17.10;45.10;;;;;;4994586;28;20450;-83
2022/03/25 10:40:00;;;;;;;48.03;30.17;;;17.20;45.50;;;;;;4995856;28;20458;-83
2022/03/25 10:42:25;;;;;;;43.90;29.13;;;17.00;46.40;;;;;;4987361;28;20495;-89
2022/03/25 10:44:51;;;;;;;49.80;29.87;;;17.10;45.40;;;;;;4976515;28;20183;-86
2022/03/25 10:47:16;;;;;;;51.77;30.87;;;17.40;44.90;;;;;;4970588;28;20188;-89
2022/03/25 10:49:44;;;;;;;47.73;29.73;;;17.60;45.50;;;;;;4969903;28;20908;-90
2022/03/25 10:52:26;;;;;;;51.27;30.03;;;17.70;45.70;;;;;;4967758;28;20682;-85
2022/03/25 10:55:16;;;;;;;66.73;32.83;;;17.60;46.70;;;;;;4968424;28;20439;-88
2022/03/25 10:57:55;;;;;;;65.30;36.80;;;17.70;48.60;;;;;;4969839;28;20435;-88
2022/03/25 11:00:22;;;;;;;54.27;30.50;;;17.00;47.80;;;;;;4963801;28;20542;-87
2022/03/25 11:02:48;;;;;;;52.37;31.57;;;17.20;48.40;;;;;;4961087;28;20466;-84
2022/03/25 11:05:14;;;;;;;55.63;29.23;;;17.70;47.20;;;;;;4960233;28;20437;-88
2022/03/25 11:07:43;;;;;;;50.13;29.43;;;18.00;46.80;;;;;;4959916;28;20218;-87
2022/03/25 11:10:12;;;;;;;55.27;34.17;;;18.20;46.40;;;;;;4964734;28;20821;-83
2022/03/25 11:12:44;;;;;;;48.87;28.97;;;18.30;45.30;;;;;;4968065;28;21116;-84
2022/03/25 11:15:18;;;;;;;51.40;31.43;;;18.40;47.20;;;;;;4955631;28;20554;-84
2022/03/25 11:17:45;;;;;;;53.40;31.87;;;18.60;46.70;;;;;;4968370;28;20447;-87
2022/03/25 11:20:15;;;;;;;56.57;32.70;;;19.70;46.20;;;;;;4961729;28;20534;-84
2022/03/25 11:23:04;;;;;;;52.60;32.67;;;18.90;45.10;;;;;;4961084;28;20492;-86
2022/03/25 11:25:33;;;;;;;51.00;32.63;;;18.90;45.80;;;;;;4966910;28;20553;-85
2022/03/25 11:28:01;;;;;;;55.20;32.33;;;18.90;46.70;;;;;;4965961;28;20503;-86
2022/03/25 11:30:31;;;;;;;54.70;32.07;;;19.00;46.90;;;;;;4964255;28;20446;-86
2022/03/25 11:33:04;;;;;;;48.60;32.43;;;18.90;47.30;;;;;;4977280;28;21502;-84
2022/03/25 11:35:41;;;;;;;55.07;32.70;;;18.90;46.10;;;;;;4966021;28;20490;-87
2022/03/25 11:38:13;;;;;;;58.27;34.33;;;18.60;43.80;;;;;;4989140;28;20470;-83
2022/03/25 11:40:39;;;;;;;53.70;30.97;;;18.60;44.40;;;;;;4976782;28;20941;-84
2022/03/25 11:43:18;;;;;;;55.43;33.17;;;18.60;44.70;;;;;;4971767;28;20463;-83
2022/03/25 11:46:00;;;;;;;53.63;32.63;;;18.60;45.90;;;;;;4973112;28;20517;-87
2022/03/25 11:48:26;;;;;;;53.90;33.53;;;18.70;45.80;;;;;;4972714;28;20431;-84
2022/03/25 11:50:54;;;;;;;59.67;32.43;;;18.80;46.20;;;;;;4976576;28;21022;-85
2022/03/25 11:53:22;;;;;;;52.30;31.67;;;18.90;46.90;;;;;;4982168;28;20199;-88
2022/03/25 11:56:11;;;;;;;56.67;34.07;;;19.00;45.80;;;;;;4975132;28;20502;-87
2022/03/25 11:59:01;;;;;;;60.40;32.10;;;18.90;44.80;;;;;;4976777;28;20525;-86
2022/03/25 12:01:27;;;;;;;64.10;34.93;;;;;;;;;;4975144;28;20470;-87
2022/03/25 12:03:58;;;;;;;54.80;30.87;;;19.00;44.70;;;;;;4979871;28;20443;-86
2022/03/25 12:06:26;;;;;;;61.47;34.53;;;19.00;46.20;;;;;;4992493;28;20422;-88
2022/03/25 12:09:02;;;;;;;55.53;32.77;;;19.20;45.70;;;;;;4975900;28;20435;-86
2022/03/25 12:11:56;;;;;;;52.80;32.93;;;19.50;44.70;;;;;;4987885;28;20434;-89
2022/03/25 12:14:33;;;;;;;58.30;33.57;;;19.50;44.60;;;;;;4998290;28;21014;-88
2022/03/25 12:17:12;;;;;;;54.43;31.83;;;19.70;44.00;;;;;;4970198;28;21023;-87
2022/03/25 12:19:45;;;;;;;55.80;34.53;;;19.50;44.20;;;;;;4978111;28;20487;-88
2022/03/25 12:22:19;;;;;;;52.17;32.03;;;19.50;44.30;;;;;;4975453;28;20514;-87
2022/03/25 12:24:46;;;;;;;51.10;31.57;;;19.50;45.10;;;;;;4979501;28;20433;-89
2022/03/25 12:27:12;;;;;;;52.90;32.17;;;19.30;43.90;;;;;;4980270;28;20522;-90
2022/03/25 12:29:41;;;;;;;56.17;34.37;;;19.40;43.90;;;;;;4979828;28;20418;-88
2022/03/25 12:32:14;;;;;;;55.47;33.70;;;20.10;44.20;;;;;;4980770;28;20419;-89
2022/03/25 12:34:40;;;;;;;57.60;30.83;;;20.10;44.30;;;;;;4978482;28;20439;-87
2022/03/25 12:37:12;;;;;;;54.60;32.97;;;20.60;42.80;;;;;;4977784;28;20445;-88
2022/03/25 12:39:52;;;;;;;52.93;33.80;;;20.70;43.30;;;;;;4983678;28;20187;-89
2022/03/25 12:42:19;;;;;;;57.20;32.90;;;;;;;;;;4980186;28;20516;-89